Time;durP1;ratioP1;P1;durP2;ratioP2;P2;SDS_P1;SDS_P2;PMS_P1;PMS_P2;Temp;Humidity;BMP_temperature;BMP_pressure;BME280_temperature;BME280_humidity;BME280_pressure;Samples;Min_cycle;Max_cycle;Signal;HPM_P1;HPM_P2
2022/09/15 00:02:10;;;;;;;2.42;1.30;;;;;;;25.79;48.85;100666.88;5037152;28;20036;-40
2022/09/15 00:04:35;;;;;;;5.07;1.45;;;;;;;25.76;48.64;100664.53;5056095;28;21064;-39
2022/09/15 00:07:01;;;;;;;3.78;1.38;;;;;;;25.70;49.15;100671.47;5057798;28;20028;-40
2022/09/15 00:09:26;;;;;;;3.65;1.40;;;;;;;25.68;48.78;100670.81;5050873;28;21795;-40
2022/09/15 00:11:51;;;;;;;2.92;1.10;;;;;;;25.64;49.12;100669.44;5057629;28;20043;-39
2022/09/15 00:14:17;;;;;;;3.35;1.55;;;;;;;25.64;48.45;100672.16;5055223;28;20782;-40
2022/09/15 00:16:43;;;;;;;4.80;1.38;;;;;;;25.61;48.83;100667.91;5056555;28;20042;-43
2022/09/15 00:19:08;;;;;;;3.17;1.02;;;;;;;25.58;48.81;100665.56;5055812;28;20035;-40
2022/09/15 00:21:36;;;;;;;2.92;1.02;;;;;;;25.56;49.01;100664.88;5055775;28;20765;-46
2022/09/15 00:24:02;;;;;;;3.13;1.20;;;;;;;25.52;49.24;100663.53;5056169;28;20020;-40
2022/09/15 00:26:28;;;;;;;4.60;1.20;;;;;;;25.51;48.55;100665.41;5056554;28;20378;-41
2022/09/15 00:28:56;;;;;;;3.58;1.38;;;;;;;25.50;48.72;100663.72;5055631;28;20134;-40
2022/09/15 00:31:23;;;;;;;2.88;1.40;;;;;;;25.47;48.85;100665.91;5055532;28;20024;-41
2022/09/15 00:33:50;;;;;;;2.78;1.15;;;;;;;25.44;48.30;100663.56;5038270;28;20061;-41
2022/09/15 00:36:17;;;;;;;2.30;1.20;;;;;;;25.43;48.90;100659.16;5056397;28;20031;-41
2022/09/15 00:38:43;;;;;;;2.75;1.20;;;;;;;25.43;49.22;100667.28;5055216;28;20085;-39
2022/09/15 00:41:11;;;;;;;2.08;1.13;;;;;;;25.40;48.96;100662.19;5055907;28;20036;-40
2022/09/15 00:43:39;;;;;;;4.40;1.15;;;;;;;25.40;49.14;100662.19;5056265;28;20040;-41
2022/09/15 00:46:05;;;;;;;2.65;1.00;;;;;;;25.35;48.84;100665.38;5055701;28;20028;-40
2022/09/15 00:48:30;;;;;;;2.22;1.15;;;;;;;25.34;48.77;100671.81;5054791;28;20511;-39
2022/09/15 00:50:58;;;;;;;2.33;1.13;;;;;;;25.34;48.92;100675.34;5055707;28;20037;-40
2022/09/15 00:53:25;;;;;;;1.52;1.00;;;;;;;25.34;48.79;100675.34;5055501;28;21878;-40
2022/09/15 00:55:51;;;;;;;2.28;0.93;;;;;;;25.33;49.12;100679.13;5054825;28;20060;-42
2022/09/15 00:58:26;;;;;;;1.85;1.10;;;;;;;25.32;48.70;100671.13;5056146;28;20115;-43
2022/09/15 01:01:03;;;;;;;4.13;1.30;;;;;;;25.31;49.11;100670.28;5055260;28;20028;-39
2022/09/15 01:03:31;;;;;;;1.30;1.00;;;;;;;25.30;49.00;100679.44;5036144;28;20365;-39
2022/09/15 01:06:06;;;;;;;1.20;1.05;;;;;;;25.28;48.60;100676.06;5053705;28;20035;-42
2022/09/15 01:08:40;;;;;;;1.88;1.05;;;;;;;25.26;48.93;100672.66;5054621;28;20040;-41
2022/09/15 01:11:05;;;;;;;1.83;1.20;;;;;;;25.25;49.08;100672.84;5054979;28;20447;-40
2022/09/15 01:13:31;;;;;;;1.35;0.95;;;;;;;25.22;49.04;100679.44;5056281;28;20028;-39
2022/09/15 01:16:30;;;;;;;2.28;1.30;;;;;;;25.23;48.77;100666.72;5034918;28;20043;-40
2022/09/15 01:19:21;;;;;;;1.40;1.02;;;;;;;25.25;48.59;100675.56;5053922;28;20666;-39
2022/09/15 01:21:54;;;;;;;1.75;1.10;;;;;;;25.24;48.79;100671.13;5055805;28;20552;-41
2022/09/15 01:24:22;;;;;;;1.05;0.90;;;;;;;25.22;48.73;100676.75;5054296;28;20032;-40
2022/09/15 01:27:05;;;;;;;3.03;1.25;;;;;;;25.19;48.91;100677.06;5055415;28;20032;-39
2022/09/15 01:29:41;;;;;;;2.28;1.10;;;;;;;25.21;48.71;100676.91;5036593;28;20120;-39
2022/09/15 01:35:20;;;;;;;2.10;1.10;;;;;;;25.19;49.32;100677.06;5020349;28;20446;-43
2022/09/15 01:37:54;;;;;;;3.88;1.02;;;;;;;25.17;48.81;100676.41;5055951;28;20225;-39
2022/09/15 01:40:23;;;;;;;1.63;1.17;;;;;;;25.17;48.88;100676.41;5049743;28;20043;-39
2022/09/15 01:42:50;;;;;;;1.65;1.30;;;;;;;25.16;49.45;100680.94;5055069;28;20024;-39
2022/09/15 01:45:26;;;;;;;1.90;1.10;;;;;;;25.14;49.47;100682.13;5054159;28;20071;-39
2022/09/15 01:47:54;;;;;;;1.50;1.08;;;;;;;25.12;49.34;100676.88;5054160;28;20035;-39
2022/09/15 01:50:24;;;;;;;1.65;1.40;;;;;;;25.11;49.05;100679.78;5054440;28;20356;-40
2022/09/15 01:52:53;;;;;;;1.42;1.20;;;;;;;25.10;48.84;100678.91;5054042;28;20124;-41
2022/09/15 01:55:25;;;;;;;2.20;1.25;;;;;;;25.09;48.88;100679.94;5054693;28;20070;-39
2022/09/15 01:57:50;;;;;;;3.00;1.23;;;;;;;25.08;49.27;100680.97;5054634;28;20047;-39
2022/09/15 02:00:16;;;;;;;1.20;1.02;;;;;;;25.08;49.09;100685.50;5055676;28;20071;-39
2022/09/15 02:02:57;;;;;;;1.30;1.08;;;;;;;25.06;48.93;100682.97;5053728;28;20067;-40
2022/09/15 02:05:39;;;;;;;1.58;1.17;;;;;;;25.02;49.31;100687.88;5034894;28;20032;-39
2022/09/15 02:08:09;;;;;;;1.23;1.13;;;;;;;25.03;49.48;100678.75;5054842;28;20028;-39
2022/09/15 02:10:48;;;;;;;2.30;1.17;;;;;;;25.03;48.97;100678.75;5053535;28;20036;-40
2022/09/15 02:13:29;;;;;;;2.20;1.20;;;;;;;25.02;49.70;100676.22;5054776;28;20032;-39
2022/09/15 02:15:58;;;;;;;2.00;1.30;;;;;;;25.01;48.90;100682.63;5050777;28;20878;-39
2022/09/15 02:18:33;;;;;;;1.35;1.00;;;;;;;24.97;49.39;100665.03;5068638;28;20048;-39
2022/09/15 02:21:11;;;;;;;1.40;0.95;;;;;;;24.95;49.09;100684.16;5049848;28;20028;-40
2022/09/15 02:23:46;;;;;;;2.05;1.25;;;;;;;24.96;49.70;100685.00;5053980;28;20016;-40
2022/09/15 02:26:16;;;;;;;1.65;1.23;;;;;;;24.96;49.66;100682.28;5054833;28;20016;-40
2022/09/15 02:28:44;;;;;;;1.77;1.23;;;;;;;24.93;49.55;100686.19;5053211;28;20082;-40
2022/09/15 02:31:14;;;;;;;2.92;1.30;;;;;;;24.92;49.51;100687.19;5054823;28;20070;-42
2022/09/15 02:33:46;;;;;;;1.63;1.10;;;;;;;24.91;49.35;100692.78;5053436;28;20417;-40
2022/09/15 02:36:14;;;;;;;2.63;1.35;;;;;;;24.91;49.83;100688.22;5053940;28;20377;-39
2022/09/15 02:38:48;;;;;;;3.15;1.13;;;;;;;24.88;49.64;100685.84;5053700;28;20039;-40
2022/09/15 02:41:13;;;;;;;2.72;1.20;;;;;;;24.86;49.50;100679.75;5054180;28;20040;-41
2022/09/15 02:43:46;;;;;;;2.20;1.55;;;;;;;24.88;49.76;100683.13;5068730;28;20582;-42
2022/09/15 02:46:13;;;;;;;1.42;1.00;;;;;;;24.88;49.11;100685.84;5054639;28;20516;-39
2022/09/15 02:48:39;;;;;;;2.38;1.13;;;;;;;24.87;49.34;100697.69;5054313;28;20881;-41
2022/09/15 02:51:04;;;;;;;1.80;1.35;;;;;;;24.85;49.44;100686.19;5053445;28;20037;-39
2022/09/15 02:53:30;;;;;;;2.13;1.10;;;;;;;24.85;49.61;100689.72;5054235;28;20032;-39
2022/09/15 02:55:56;;;;;;;1.83;1.13;;;;;;;24.86;49.59;100690.59;5053411;28;20037;-41
2022/09/15 02:58:22;;;;;;;2.90;1.40;;;;;;;24.82;49.50;100681.94;5054723;28;21262;-40
2022/09/15 03:00:48;;;;;;;2.08;1.25;;;;;;;24.81;49.49;100690.22;5068438;28;20123;-39
2022/09/15 03:03:14;;;;;;;1.25;1.08;;;;;;;24.79;49.66;100682.25;5052852;28;20139;-40
2022/09/15 03:05:41;;;;;;;1.17;0.95;;;;;;;24.79;49.62;100676.00;5053974;28;20032;-40
2022/09/15 03:08:07;;;;;;;2.15;1.40;;;;;;;24.78;49.31;100682.44;5053634;28;20126;-42
2022/09/15 03:10:32;;;;;;;2.33;1.35;;;;;;;24.79;50.04;100684.13;5034507;28;20604;-39
2022/09/15 03:12:57;;;;;;;1.98;1.25;;;;;;;24.80;49.67;100693.97;5053992;28;21099;-38
2022/09/15 03:15:25;;;;;;;2.15;1.40;;;;;;;24.80;49.76;100691.25;5052387;28;20082;-38
2022/09/15 03:17:51;;;;;;;1.38;1.10;;;;;;;24.80;49.71;100693.97;5056433;28;20518;-40
2022/09/15 03:20:20;;;;;;;1.92;1.20;;;;;;;24.76;49.76;100696.13;5057897;28;20497;-40
2022/09/15 03:22:45;;;;;;;1.85;1.23;;;;;;;24.75;49.40;100704.44;5056138;28;20032;-39
2022/09/15 03:25:12;;;;;;;3.10;1.20;;;;;;;24.77;49.85;100707.81;5057632;28;20066;-38
2022/09/15 03:27:38;;;;;;;2.47;1.30;;;;;;;24.75;49.90;100702.56;5057876;28;20055;-38
2022/09/15 03:30:05;;;;;;;2.28;1.15;;;;;;;24.73;49.56;100701.88;5056474;28;20039;-39
2022/09/15 03:32:30;;;;;;;2.42;1.10;;;;;;;24.74;50.02;100697.31;5057284;28;20507;-38
2022/09/15 03:34:57;;;;;;;2.17;1.10;;;;;;;24.73;49.86;100704.56;5056781;28;20258;-38
2022/09/15 03:37:22;;;;;;;4.28;1.38;;;;;;;24.69;49.45;100703.22;5056930;28;20032;-41
2022/09/15 03:39:48;;;;;;;1.63;1.30;;;;;;;24.57;49.84;100705.34;5055971;28;20092;-38
2022/09/15 03:42:13;;;;;;;2.25;1.15;;;;;;;24.48;50.41;100701.78;5058509;28;20783;-39
2022/09/15 03:44:38;;;;;;;1.88;1.27;;;;;;;24.42;50.72;100705.13;5055396;28;20027;-39
2022/09/15 03:47:04;;;;;;;1.88;1.30;;;;;;;24.40;50.56;100706.28;5071259;27;20033;-38
2022/09/15 03:49:29;;;;;;;1.75;1.20;;;;;;;24.36;50.38;100698.53;5036382;28;20416;-39
2022/09/15 03:51:55;;;;;;;2.60;1.42;;;;;;;24.36;50.72;100703.94;5056742;28;20035;-38
2022/09/15 03:54:20;;;;;;;2.17;1.10;;;;;;;24.38;50.82;100701.06;5056873;28;20032;-41
2022/09/15 03:56:47;;;;;;;2.17;1.25;;;;;;;24.38;50.67;100706.47;5056503;28;20419;-41
2022/09/15 03:59:14;;;;;;;1.63;1.10;;;;;;;24.39;50.77;100705.47;5057657;28;20037;-40
2022/09/15 04:01:40;;;;;;;3.10;1.20;;;;;;;24.39;50.49;100708.16;5056350;28;20036;-40
2022/09/15 04:04:06;;;;;;;1.95;1.20;;;;;;;24.40;50.16;100709.00;5056443;28;20050;-39
2022/09/15 04:06:31;;;;;;;1.95;1.23;;;;;;;24.40;50.67;100718.00;5056308;28;20767;-38
2022/09/15 04:08:59;;;;;;;1.92;1.20;;;;;;;24.41;50.08;100708.84;5056492;28;20058;-38
2022/09/15 04:11:25;;;;;;;1.27;1.10;;;;;;;24.41;50.12;100710.72;5055969;28;20569;-38
2022/09/15 04:13:51;;;;;;;1.60;1.15;;;;;;;24.41;50.45;100708.00;5055970;28;20662;-39
2022/09/15 04:16:19;;;;;;;2.47;1.35;;;;;;;24.42;50.47;100715.94;5071627;27;20033;-38
2022/09/15 04:18:44;;;;;;;3.30;1.50;;;;;;;24.40;50.01;100706.28;5056925;28;20580;-40
2022/09/15 04:21:12;;;;;;;1.45;1.08;;;;;;;24.39;50.30;100713.59;5056270;28;20036;-39
2022/09/15 04:23:38;;;;;;;1.67;1.13;;;;;;;24.40;50.56;100712.56;5055557;28;20059;-38
2022/09/15 04:26:07;;;;;;;1.27;1.10;;;;;;;24.40;49.89;100720.69;5056963;28;20114;-40
2022/09/15 04:28:36;;;;;;;1.70;1.30;;;;;;;24.40;50.27;100706.28;5056651;28;20433;-39
2022/09/15 04:31:04;;;;;;;2.45;1.17;;;;;;;24.41;50.20;100716.13;5055393;28;20036;-39
2022/09/15 04:33:30;;;;;;;1.67;1.13;;;;;;;24.42;50.09;100715.13;5056292;28;20043;-40
2022/09/15 04:36:07;;;;;;;1.63;1.25;;;;;;;24.41;50.60;100716.97;5055776;28;20632;-38
2022/09/15 04:38:34;;;;;;;2.40;1.30;;;;;;;24.42;50.37;100715.94;5056079;28;21444;-39
2022/09/15 04:41:00;;;;;;;1.42;1.10;;;;;;;24.42;50.38;100713.25;5070300;27;20044;-40
2022/09/15 04:43:26;;;;;;;2.03;1.25;;;;;;;24.43;50.00;100720.34;5056005;28;20415;-39
2022/09/15 04:45:52;;;;;;;3.03;1.20;;;;;;;24.44;50.31;100718.50;5057143;28;20032;-40
2022/09/15 04:48:17;;;;;;;1.48;1.08;;;;;;;24.44;50.39;100716.66;5055742;28;20714;-38
2022/09/15 04:50:43;;;;;;;2.00;1.20;;;;;;;24.43;50.23;100720.34;5054692;28;20611;-39
2022/09/15 04:53:08;;;;;;;2.40;1.30;;;;;;;24.41;50.03;100716.97;5071790;27;20953;-39
2022/09/15 04:55:34;;;;;;;1.85;1.20;;;;;;;24.42;50.50;100713.25;5054845;28;20037;-39
2022/09/15 04:58:01;;;;;;;2.55;1.20;;;;;;;24.44;50.06;100708.53;5019786;28;20074;-41
2022/09/15 05:00:32;;;;;;;2.53;1.40;;;;;;;24.44;49.88;100708.53;5054731;28;20031;-39
2022/09/15 05:02:58;;;;;;;1.88;1.30;;;;;;;24.44;49.98;100707.66;5055365;28;20028;-40
2022/09/15 05:05:24;;;;;;;2.20;1.27;;;;;;;24.41;49.90;100694.47;5055206;28;20027;-38
2022/09/15 05:07:50;;;;;;;2.95;1.50;;;;;;;24.42;49.94;100697.00;5055988;28;20040;-39
2022/09/15 05:10:16;;;;;;;1.95;1.35;;;;;;;24.43;49.91;100703.28;5055379;28;20506;-39
2022/09/15 05:12:41;;;;;;;1.05;0.95;;;;;;;24.42;49.89;100702.41;5036661;28;20049;-39
2022/09/15 05:15:07;;;;;;;1.90;1.05;;;;;;;24.41;50.38;100700.72;5054839;28;20097;-41
2022/09/15 05:17:33;;;;;;;2.40;1.17;;;;;;;24.42;49.72;100705.13;5054117;28;20032;-39
2022/09/15 05:19:59;;;;;;;1.85;1.20;;;;;;;24.42;50.25;100698.88;5056413;28;20064;-40
2022/09/15 05:22:26;;;;;;;1.73;1.30;;;;;;;24.41;49.81;100699.88;5056129;28;20024;-39
2022/09/15 05:24:52;;;;;;;3.05;1.20;;;;;;;24.38;50.35;100696.47;5054492;28;20039;-39
2022/09/15 05:27:17;;;;;;;2.58;1.23;;;;;;;24.41;50.36;100702.59;5034980;28;20039;-38
2022/09/15 05:29:43;;;;;;;1.88;1.27;;;;;;;24.37;50.15;100705.63;5054883;28;20046;-38
2022/09/15 05:32:08;;;;;;;2.15;1.10;;;;;;;24.36;50.19;100703.94;5045349;28;20112;-38
2022/09/15 05:34:34;;;;;;;3.33;1.20;;;;;;;24.36;50.29;100708.47;5035991;28;20523;-39
2022/09/15 05:37:00;;;;;;;2.00;1.10;;;;;;;24.36;50.24;100706.63;5055780;28;20032;-39
2022/09/15 05:39:25;;;;;;;1.58;1.00;;;;;;;24.37;50.29;100710.19;5055077;28;20392;-40
2022/09/15 05:41:51;;;;;;;1.27;1.00;;;;;;;24.35;49.75;100714.94;5056105;28;20467;-39
2022/09/15 05:44:16;;;;;;;2.10;1.30;;;;;;;24.35;49.79;100712.22;5053769;28;20047;-38
2022/09/15 05:46:41;;;;;;;1.55;1.17;;;;;;;24.32;50.15;100709.81;5055686;28;20463;-38
2022/09/15 05:49:07;;;;;;;2.70;1.25;;;;;;;24.31;49.74;100716.22;5053977;28;20040;-39
2022/09/15 05:51:33;;;;;;;2.33;1.10;;;;;;;24.31;49.72;100714.41;5054983;28;20511;-39
2022/09/15 05:53:59;;;;;;;2.17;1.20;;;;;;;24.34;49.67;100721.34;5054697;28;20477;-38
2022/09/15 05:56:25;;;;;;;1.58;1.05;;;;;;;24.32;49.88;100716.09;5054844;28;20367;-38
2022/09/15 05:58:51;;;;;;;2.97;1.30;;;;;;;24.31;49.62;100722.50;5054191;28;20553;-38
2022/09/15 06:01:28;;;;;;;1.83;1.25;;;;;;;24.31;50.14;100724.34;5031911;28;20035;-38
2022/09/15 06:03:55;;;;;;;2.50;1.50;;;;;;;24.33;50.19;100725.06;5033144;28;20036;-40
2022/09/15 06:06:22;;;;;;;2.20;1.20;;;;;;;24.32;50.15;100726.91;5056106;28;20062;-39
2022/09/15 06:08:54;;;;;;;1.50;1.05;;;;;;;24.32;49.48;100728.75;5038798;28;20553;-38
2022/09/15 06:11:22;;;;;;;1.77;1.00;;;;;;;24.32;50.06;100736.88;5053131;28;20039;-38
2022/09/15 06:13:48;;;;;;;2.17;1.35;;;;;;;24.31;49.73;100733.34;5055390;28;20349;-38
2022/09/15 06:16:18;;;;;;;2.95;1.20;;;;;;;24.27;49.63;100733.81;5053047;28;20047;-38
2022/09/15 06:18:43;;;;;;;2.53;1.40;;;;;;;24.28;49.61;100738.22;5053280;28;20043;-39
2022/09/15 06:21:11;;;;;;;1.40;1.10;;;;;;;24.29;49.69;100743.47;5034752;28;20048;-38
2022/09/15 06:23:37;;;;;;;1.10;1.00;;;;;;;24.30;49.60;100755.16;5053636;28;20032;-40
2022/09/15 06:26:17;;;;;;;2.67;1.40;;;;;;;24.30;49.50;100749.75;5053393;28;20103;-38
2022/09/15 06:28:57;;;;;;;2.15;1.17;;;;;;;24.29;49.95;100750.75;5050712;28;20150;-40
2022/09/15 06:31:24;;;;;;;1.70;1.30;;;;;;;24.30;49.61;100761.41;5053247;28;20127;-40
2022/09/15 06:33:52;;;;;;;1.65;1.17;;;;;;;24.31;50.06;100756.81;5053387;28;20548;-38
2022/09/15 06:36:19;;;;;;;2.58;1.40;;;;;;;24.27;49.77;100761.72;5053912;28;20413;-38
2022/09/15 06:38:44;;;;;;;2.25;1.30;;;;;;;24.30;50.06;100752.44;5067833;28;20040;-40
2022/09/15 06:41:11;;;;;;;1.83;1.25;;;;;;;24.29;49.61;100761.56;5054402;28;20098;-38
2022/09/15 06:43:37;;;;;;;3.42;1.40;;;;;;;24.30;50.06;100763.28;5053205;28;20479;-39
2022/09/15 06:46:08;;;;;;;1.52;1.30;;;;;;;24.28;49.79;100760.69;5055374;28;20195;-39
2022/09/15 06:48:34;;;;;;;1.70;1.20;;;;;;;24.29;49.79;100761.56;5053337;28;21367;-40
2022/09/15 06:51:00;;;;;;;1.98;1.33;;;;;;;24.28;50.13;100763.41;5054528;28;20221;-40
2022/09/15 06:53:30;;;;;;;3.13;1.40;;;;;;;24.31;49.65;100762.22;5053530;28;20040;-40
2022/09/15 06:56:11;;;;;;;2.60;1.38;;;;;;;24.31;49.98;100756.81;5058155;28;20773;-40
2022/09/15 06:58:38;;;;;;;1.90;1.20;;;;;;;24.32;49.67;100766.66;5057098;28;20032;-39
2022/09/15 07:01:08;;;;;;;2.05;1.30;;;;;;;24.32;50.19;100772.94;5057826;28;20037;-40
2022/09/15 07:03:34;;;;;;;3.90;1.20;;;;;;;24.34;49.67;100778.16;5056856;28;20119;-42
2022/09/15 07:06:00;;;;;;;2.83;1.42;;;;;;;24.36;49.58;100781.53;5056084;28;20309;-39
2022/09/15 07:08:25;;;;;;;2.00;1.40;;;;;;;24.36;50.02;100781.53;5057642;28;20549;-38
2022/09/15 07:10:51;;;;;;;2.67;1.35;;;;;;;24.34;50.25;100784.41;5056272;28;20067;-38
2022/09/15 07:13:16;;;;;;;3.15;1.45;;;;;;;24.37;50.01;100788.66;5057793;28;20040;-41
2022/09/15 07:15:56;;;;;;;2.95;1.40;;;;;;;24.35;50.25;100799.66;5057275;28;20041;-38
2022/09/15 07:18:22;;;;;;;2.42;1.38;;;;;;;24.36;50.37;100814.03;5070814;27;20060;-41
2022/09/15 07:20:49;;;;;;;3.75;1.50;;;;;;;24.37;49.85;100813.00;5057490;28;20036;-39
2022/09/15 07:23:15;;;;;;;3.65;1.48;;;;;;;24.37;49.84;100818.44;5057666;28;21351;-39
2022/09/15 07:25:43;;;;;;;3.80;1.42;;;;;;;24.38;49.89;100812.84;5057342;28;20036;-39
2022/09/15 07:28:13;;;;;;;4.25;1.67;;;;;;;24.36;50.12;100805.91;5056123;28;20048;-40
2022/09/15 07:30:40;;;;;;;3.33;1.50;;;;;;;24.37;49.90;100810.31;5056990;28;20057;-38
2022/09/15 07:33:10;;;;;;;3.15;1.50;;;;;;;24.38;49.69;100812.84;5057014;28;20058;-38
2022/09/15 07:35:43;;;;;;;5.38;1.70;;;;;;;24.40;50.29;100811.84;5057896;28;20634;-38
2022/09/15 07:38:09;;;;;;;3.03;1.48;;;;;;;24.40;50.10;100807.31;5055388;28;20036;-38
2022/09/15 07:40:35;;;;;;;4.13;1.60;;;;;;;24.40;50.32;100818.13;5037116;28;20062;-38
2022/09/15 07:43:00;;;;;;;3.22;1.38;;;;;;;24.40;49.69;100815.41;5056766;28;20032;-40
2022/09/15 07:45:25;;;;;;;2.55;1.40;;;;;;;24.42;50.01;100809.84;5055625;28;20050;-39
2022/09/15 07:47:51;;;;;;;4.45;1.70;;;;;;;24.40;49.80;100817.25;5055483;28;20096;-39
2022/09/15 07:50:16;;;;;;;3.20;1.42;;;;;;;24.40;50.21;100822.66;5055694;28;20039;-38
2022/09/15 07:52:42;;;;;;;6.13;1.63;;;;;;;24.41;49.83;100827.91;5069940;27;20040;-38
2022/09/15 07:55:08;;;;;;;3.88;1.70;;;;;;;24.36;50.59;100830.25;5055106;28;20508;-38
2022/09/15 07:57:34;;;;;;;3.60;1.70;;;;;;;24.33;50.72;100836.84;5054586;28;20040;-39
2022/09/15 07:59:59;;;;;;;3.67;1.60;;;;;;;24.32;50.70;100827.03;5043682;28;20163;-39
2022/09/15 08:02:25;;;;;;;3.88;1.65;;;;;;;24.34;50.16;100843.94;5055848;28;20082;-40
2022/09/15 08:04:51;;;;;;;3.80;1.60;;;;;;;24.37;50.27;100843.66;5053835;28;20282;-41
2022/09/15 08:07:17;;;;;;;4.15;1.60;;;;;;;24.40;50.56;100852.44;5054810;28;20028;-38
2022/09/15 08:09:43;;;;;;;3.70;1.50;;;;;;;24.41;50.62;100865.81;5054049;28;20715;-39
2022/09/15 08:12:09;;;;;;;4.55;1.20;;;;;;;24.44;50.57;100861.94;5054385;28;20736;-38
2022/09/15 08:14:34;;;;;;;5.88;1.90;;;;;;;24.44;50.66;100864.66;5053020;28;20810;-40
2022/09/15 08:17:00;;;;;;;4.65;1.70;;;;;;;24.47;50.44;100870.59;5053820;28;20073;-41
2022/09/15 08:19:26;;;;;;;3.63;1.35;;;;;;;24.48;50.64;100875.00;5044376;28;20039;-38
2022/09/15 08:21:52;;;;;;;4.82;1.92;;;;;;;24.48;50.68;100882.28;5052623;28;20621;-40
2022/09/15 08:24:18;;;;;;;4.22;1.30;;;;;;;24.50;49.93;100886.53;5069910;27;20028;-39
2022/09/15 08:26:43;;;;;;;3.80;1.30;;;;;;;24.53;50.07;100896.19;5054499;28;20029;-40
2022/09/15 08:29:08;;;;;;;6.25;1.38;;;;;;;24.53;49.88;100885.38;5039441;28;20480;-40
2022/09/15 08:31:34;;;;;;;4.18;1.52;;;;;;;24.53;49.93;100891.63;5055549;28;20369;-39
2022/09/15 08:34:02;;;;;;;3.92;1.45;;;;;;;24.55;50.21;100896.88;5056579;28;20319;-38
2022/09/15 08:36:28;;;;;;;2.60;1.40;;;;;;;24.54;50.40;100896.03;5054542;28;20037;-38
2022/09/15 08:38:54;;;;;;;2.78;1.25;;;;;;;24.55;50.37;100894.16;5057404;28;20040;-38
2022/09/15 08:41:31;;;;;;;4.32;1.70;;;;;;;24.54;50.52;100909.56;5055946;28;20392;-38
2022/09/15 08:44:00;;;;;;;4.18;1.48;;;;;;;24.59;50.40;100910.94;5056440;28;20371;-39
2022/09/15 08:46:52;;;;;;;5.85;1.35;;;;;;;24.59;50.17;100916.34;5055200;28;20031;-41
2022/09/15 08:49:31;;;;;;;3.95;1.65;;;;;;;24.59;50.21;100916.34;5046981;28;20043;-39
2022/09/15 08:52:02;;;;;;;3.42;1.42;;;;;;;24.60;49.68;100904.53;5056877;28;20585;-40
2022/09/15 08:54:29;;;;;;;2.53;1.33;;;;;;;24.59;49.55;100908.22;5056229;28;20043;-39
2022/09/15 08:56:56;;;;;;;2.15;1.10;;;;;;;24.60;49.43;100910.78;5056469;28;20113;-39
2022/09/15 08:59:25;;;;;;;3.75;1.25;;;;;;;24.58;50.15;100910.09;5056690;28;20075;-38
2022/09/15 09:02:12;;;;;;;3.75;1.30;;;;;;;24.60;49.89;100913.47;5056858;28;20091;-42
2022/09/15 09:04:53;;;;;;;3.53;1.20;;;;;;;24.60;49.40;100910.78;5055610;28;20040;-40
2022/09/15 09:07:31;;;;;;;3.78;1.50;;;;;;;24.61;50.00;100915.19;5050628;28;20878;-38
2022/09/15 09:10:12;;;;;;;2.83;1.48;;;;;;;24.62;49.85;100907.94;5056048;28;20070;-38
2022/09/15 09:12:56;;;;;;;2.67;1.30;;;;;;;24.65;49.70;100918.47;5054680;28;20286;-38
2022/09/15 09:15:35;;;;;;;3.45;1.35;;;;;;;24.63;49.52;100915.88;5054553;28;20079;-38
2022/09/15 09:18:45;;;;;;;4.18;1.52;;;;;;;24.64;50.01;100920.34;5054515;28;20115;-39
2022/09/15 09:21:11;;;;;;;2.78;1.05;;;;;;;24.65;49.35;100911.16;5054715;28;20700;-38
2022/09/15 09:23:45;;;;;;;2.72;1.25;;;;;;;24.66;49.37;100909.34;5054439;28;20098;-39
2022/09/15 09:26:12;;;;;;;3.35;1.23;;;;;;;24.64;49.45;100906.78;5054095;28;20050;-39
2022/09/15 09:28:45;;;;;;;43.78;3.55;;;;;;;24.67;49.84;100903.75;5046738;28;20352;-34
2022/09/15 09:31:17;;;;;;;5.35;1.45;;;;;;;24.78;49.07;100897.19;5047073;28;20115;-34
2022/09/15 09:33:57;;;;;;;4.63;1.50;;;;;;;24.85;49.37;100894.72;5049263;28;20118;-34
2022/09/15 09:36:23;;;;;;;8.75;1.60;;;;;;;24.88;49.38;100893.56;5047425;28;20133;-34
2022/09/15 09:38:49;;;;;;;8.57;1.50;;;;;;;24.95;48.55;100894.56;5050020;28;20027;-32
2022/09/15 09:41:24;;;;;;;4.78;1.30;;;;;;;24.97;48.76;100898.00;5047478;28;20146;-32
2022/09/15 09:43:53;;;;;;;3.17;1.45;;;;;;;25.03;48.33;100902.75;5039103;28;20388;-32
2022/09/15 09:46:20;;;;;;;4.47;1.15;;;;;;;25.07;48.91;100901.41;5047658;28;20028;-34
2022/09/15 09:49:01;;;;;;;4.00;1.70;;;;;;;25.11;48.84;100897.38;5047962;28;20033;-34
2022/09/15 09:51:35;;;;;;;5.68;1.60;;;;;;;25.16;48.11;100903.16;5049405;28;20051;-34
2022/09/15 09:54:15;;;;;;;5.85;1.40;;;;;;;25.19;48.26;100905.53;5049171;28;20076;-34
2022/09/15 09:56:43;;;;;;;84.85;5.80;;;;;;;25.13;48.44;100908.03;5034097;28;20118;-34
2022/09/15 09:59:31;;;;;;;7.50;1.42;;;;;;;25.14;48.41;100907.91;5049785;28;20043;-34
2022/09/15 10:02:12;;;;;;;5.30;1.40;;;;;;;25.19;48.44;100902.84;5049371;28;20739;-34
2022/09/15 10:04:40;;;;;;;5.45;1.33;;;;;;;25.22;48.25;100904.38;5049369;28;20066;-34
2022/09/15 10:07:06;;;;;;;4.72;1.30;;;;;;;25.23;48.52;100913.34;5049702;28;20028;-38
2022/09/15 10:09:32;;;;;;;4.38;1.42;;;;;;;25.24;48.82;100899.63;5048810;28;20257;-38
2022/09/15 10:12:00;;;;;;;9.65;1.50;;;;;;;25.25;48.13;100898.59;5048797;28;20149;-35
2022/09/15 10:14:34;;;;;;;6.35;1.42;;;;;;;25.26;48.51;100903.03;5050022;28;20490;-34
2022/09/15 10:17:25;;;;;;;5.30;1.40;;;;;;;25.22;48.46;100903.50;5049427;28;20036;-39
2022/09/15 10:19:55;;;;;;;3.95;1.45;;;;;;;25.26;47.63;100904.91;5048454;28;21779;-37
2022/09/15 10:22:37;;;;;;;4.20;1.52;;;;;;;25.27;48.20;100901.16;5048309;28;20035;-38
2022/09/15 10:25:22;;;;;;;5.32;1.30;;;;;;;25.28;47.78;100901.00;5050458;28;20027;-38
2022/09/15 10:28:15;;;;;;;5.95;1.40;;;;;;;25.28;47.84;100895.59;5031506;28;20040;-34
2022/09/15 10:30:57;;;;;;;4.25;1.40;;;;;;;25.30;47.40;100887.28;5045880;28;20579;-34
2022/09/15 10:33:23;;;;;;;;;;;;;;;25.31;47.50;100900.66;5053900;28;20109;-34
2022/09/15 10:35:49;;;;;;;31.55;2.50;;;;;;;25.27;47.82;100895.72;5052046;28;20526;-35
2022/09/15 10:38:27;;;;;;;6.20;1.40;;;;;;;25.26;47.54;100910.31;5053341;28;20896;-35
2022/09/15 10:41:12;;;;;;;5.80;1.38;;;;;;;25.28;47.95;100900.13;5053725;28;20499;-39
2022/09/15 10:44:15;;;;;;;4.47;1.65;;;;;;;25.30;47.26;100896.25;5033020;28;20035;-34
2022/09/15 10:47:16;;;;;;;6.13;1.30;;;;;;;25.29;46.69;100902.69;5048117;28;20710;-42
2022/09/15 10:49:59;;;;;;;6.18;1.65;;;;;;;25.31;46.55;100899.84;5053626;28;20773;-35
2022/09/15 10:52:37;;;;;;;8.05;1.92;;;;;;;25.31;46.54;100903.38;5053363;28;20027;-43
2022/09/15 10:55:28;;;;;;;8.55;1.63;;;;;;;25.32;46.40;100907.78;5053293;28;20024;-39
2022/09/15 10:58:35;;;;;;;4.75;1.30;;;;;;;25.31;47.24;100911.50;5013404;28;20233;-35
2022/09/15 11:01:29;;;;;;;9.40;1.52;;;;;;;25.30;46.77;100914.38;5036745;28;20050;-40
2022/09/15 11:04:24;;;;;;;6.93;1.58;;;;;;;25.31;46.13;100916.09;5053050;28;20047;-35
2022/09/15 11:06:59;;;;;;;59.22;3.90;;;;;;;25.32;45.63;100915.06;5051913;28;20034;-39
2022/09/15 11:09:33;;;;;;;7.15;1.50;;;;;;;25.27;46.17;100920.13;5052258;28;20071;-35
2022/09/15 11:12:17;;;;;;;8.38;2.22;;;;;;;25.25;45.60;100923.00;5052499;28;20028;-37
2022/09/15 11:14:53;;;;;;;22.08;4.93;;;;;;;25.24;45.79;100917.75;5052783;28;20047;-38
2022/09/15 11:17:43;;;;;;;42.95;5.40;;;;;;;25.25;46.25;100924.88;5052021;28;20049;-35
2022/09/15 11:20:14;;;;;;;22.52;4.35;;;;;;;25.31;45.86;100929.66;5050730;28;20103;-36
2022/09/15 11:22:50;;;;;;;;;;;;;;;25.34;45.55;100913.03;5054096;28;20575;-39
2022/09/15 11:25:21;;;;;;;46.97;6.35;;;;;;;25.34;45.54;100937.44;5051342;28;20042;-36
2022/09/15 11:27:58;;;;;;;33.67;6.60;;;;;;;25.30;45.57;100931.50;5052485;28;20063;-36
2022/09/15 11:30:28;;;;;;;21.05;5.35;;;;;;;25.29;45.60;100931.66;5052315;28;20036;-36
2022/09/15 11:33:20;;;;;;;26.47;6.63;;;;;;;25.27;45.59;100931.81;5051759;28;20573;-36
2022/09/15 11:36:01;;;;;;;27.67;6.60;;;;;;;25.26;45.21;100926.56;5032793;28;20790;-36
2022/09/15 11:38:34;;;;;;;24.75;6.43;;;;;;;25.24;45.57;100934.00;5052601;28;20331;-36
2022/09/15 11:41:02;;;;;;;23.05;5.78;;;;;;;25.23;45.16;100933.16;5051986;28;20036;-36
2022/09/15 11:43:44;;;;;;;28.40;6.43;;;;;;;25.21;45.14;100935.19;5051688;28;20125;-36